LZIB Airport Information

Runway Information
Runway 04 Length 9515 ft width 197 ft
Elevation 436 ft Threshold ft Heading 44
Runway 22 Length 9515 ft Width 197 ft
Elevation 430 ft Threshold ft Heading 224
Runway 13 Length 10466 ft width 148 ft
Elevation 433 ft Threshold ft Heading 134
Runway 31 Length 10466 ft Width 148 ft
Elevation 434 ft Threshold 777 ft Heading 314
Airport Frequencies
Type APP Name APP Frequency 120.9 MHZ
Type ATIS Name ATIS Frequency 128.65 MHZ
Type TWR Name TWR Frequency 118.3 MHZ
Airport Navaids
Type VOR-DME Name Janovce Frequency 110800 KHZ
Type NDB Name Stefanik South Frequency 330 KHZ
Type NDB Name Stefanik North Frequency 391 KHZ
Airport Weather Information & NOTAM
ADDS - METARS form results

(1435 UTC 26 June 2022)
Data provider http://aviationweather.gov/metar/data/
 
METAR text: LZIB 261430Z VRB05KT CAVOK 29/14 Q1015 NOSIG
Conditions at: LZIB (BRATISLAVA IVANK, SK) observed 1430 UTC 26 June 2022
Temperature: 29.0°C (84°F)
Dewpoint: 14.0°C (57°F) [RH = 40%]
Pressure (altimeter): 29.97 inches Hg (1015.0 mb)
Winds: variable direction winds at 6 MPH (5 knots; 2.6 m/s)
Visibility: 6 or more miles (10+ km)
Ceiling: ceiling and visibility are OK
Clouds: unknown
Weather: no significant weather observed at this time

METAR text: LZIB 261400Z 20006KT 170V240 CAVOK 29/15 Q1015 NOSIG
Conditions at: LZIB (BRATISLAVA IVANK, SK) observed 1400 UTC 26 June 2022
Temperature: 29.0°C (84°F)
Dewpoint: 15.0°C (59°F) [RH = 43%]
Pressure (altimeter): 29.97 inches Hg (1015.0 mb)
Winds: from the SSW (200 degrees) at 7 MPH (6 knots; 3.1 m/s)
Visibility: 6 or more miles (10+ km)
Ceiling: ceiling and visibility are OK
Clouds: unknown
Weather: no significant weather observed at this time

Forecast for: LZIB (BRATISLAVA IVANK, SK)
Text: TAF LZIB 261115Z 2612/2712 VRB02KT CAVOK
Forecast period: 1200 UTC 26 June 2022 to 0400 UTC 27 June 2022
Forecast type: FROM: standard forecast or significant change
Winds: variable direction winds at 2 MPH (2 knots; 1.0 m/s)
Visibility: 6 or more miles (10+ km)
Ceiling: unknown
Clouds: missing
Weather: NSW  (no significant weather)
Text: BECMG 2704/2706 08006KT
Forecast period: 0400 to 1200 UTC 27 June 2022
Forecast type: BECOMING: Conditions expected to become as follows by 0600 UTC 27 June 2022
Winds: from the E (80 degrees) at 7 MPH (6 knots; 3.1 m/s)
Visibility: 6 or more miles (10+ km)
Ceiling: unknown
Clouds: missing
Weather: NSW  (no significant weather)